Time;durP1;ratioP1;P1;durP2;ratioP2;P2;SDS_P1;SDS_P2;PMS_P1;PMS_P2;Temp;Humidity;BMP_temperature;BMP_pressure;BME280_temperature;BME280_humidity;BME280_pressure;Samples;Min_cycle;Max_cycle;Signal;HPM_P1;HPM_P2
2023/12/06 00:00:44;;;;;;;;;20.33;19.67;;;;;;;;5100217;27;45247;-75
2023/12/06 00:03:09;;;;;;;;;20.33;17.67;;;;;;;;5099940;27;45246;-75
2023/12/06 00:05:34;;;;;;;;;16.00;15.00;;;;;;;;5099674;27;45244;-75
2023/12/06 00:07:59;;;;;;;;;16.67;16.00;;;;;;;;5099832;27;45198;-76
2023/12/06 00:10:25;;;;;;;;;18.00;16.25;;;;;;;;5101526;27;45170;-75
2023/12/06 00:12:50;;;;;;;;;21.00;19.67;;;;;;;;5103318;27;45555;-76
2023/12/06 00:15:15;;;;;;;;;16.67;15.33;;;;;;;;5103330;27;46024;-77
2023/12/06 00:17:40;;;;;;;;;19.33;16.67;;;;;;;;5102106;27;45741;-76
2023/12/06 00:20:06;;;;;;;;;20.67;20.67;;;;;;;;5103319;27;45228;-76
2023/12/06 00:22:31;;;;;;;;;22.00;19.00;;;;;;;;5103230;27;45751;-75
2023/12/06 00:24:57;;;;;;;;;18.33;17.00;;;;;;;;5101600;27;47152;-76
2023/12/06 00:27:22;;;;;;;;;15.67;14.00;;;;;;;;5102876;27;45285;-76
2023/12/06 00:29:47;;;;;;;;;17.67;15.33;;;;;;;;5103317;27;45383;-76
2023/12/06 00:32:12;;;;;;;;;20.33;17.67;;;;;;;;5101734;27;46521;-75
2023/12/06 00:34:37;;;;;;;;;15.67;15.00;;;;;;;;5101734;27;47039;-75
2023/12/06 00:37:03;;;;;;;;;16.00;13.67;;;;;;;;5101976;27;45246;-76
2023/12/06 00:39:28;;;;;;;;;14.00;13.00;;;;;;;;5103164;27;45553;-75
2023/12/06 00:41:53;;;;;;;;;13.75;13.75;;;;;;;;5103066;27;45484;-75
2023/12/06 00:44:18;;;;;;;;;16.33;15.00;;;;;;;;5102685;27;46435;-75
2023/12/06 00:46:43;;;;;;;;;18.67;16.33;;;;;;;;5102897;27;45251;-76
2023/12/06 00:49:09;;;;;;;;;17.00;15.50;;;;;;;;5101532;27;45338;-76
2023/12/06 00:51:35;;;;;;;;;13.67;13.33;;;;;;;;5101356;27;46149;-75
2023/12/06 00:54:00;;;;;;;;;19.00;18.33;;;;;;;;5101486;27;48179;-75
2023/12/06 00:56:25;;;;;;;;;16.67;15.67;;;;;;;;5102576;27;45311;-76
2023/12/06 00:58:50;;;;;;;;;18.50;16.00;;;;;;;;5084416;27;45486;-75
2023/12/06 01:01:15;;;;;;;;;14.00;14.00;;;;;;;;5102872;27;45401;-74
2023/12/06 01:03:41;;;;;;;;;20.75;16.75;;;;;;;;5102499;27;46583;-76
2023/12/06 01:06:06;;;;;;;;;17.00;17.00;;;;;;;;5102622;27;45812;-76
2023/12/06 01:08:31;;;;;;;;;14.00;14.00;;;;;;;;5102814;27;45365;-75
2023/12/06 01:10:56;;;;;;;;;21.33;15.33;;;;;;;;5102767;27;45616;-75
2023/12/06 01:13:21;;;;;;;;;23.00;17.00;;;;;;;;5083573;27;47222;-75
2023/12/06 01:15:47;;;;;;;;;17.67;17.67;;;;;;;;5101966;27;45263;-75
2023/12/06 01:18:12;;;;;;;;;17.00;15.00;;;;;;;;5102617;27;45386;-75
2023/12/06 01:20:38;;;;;;;;;15.00;15.00;;;;;;;;5101833;27;45257;-76
2023/12/06 01:23:03;;;;;;;;;14.00;11.33;;;;;;;;5102141;27;45916;-75
2023/12/06 01:25:28;;;;;;;;;12.67;12.00;;;;;;;;5102168;27;45367;-75
2023/12/06 01:27:54;;;;;;;;;15.00;12.50;;;;;;;;5102260;27;45558;-75
2023/12/06 01:30:19;;;;;;;;;20.33;17.00;;;;;;;;5102118;27;45341;-75
2023/12/06 01:32:44;;;;;;;;;13.00;13.00;;;;;;;;5083493;27;48020;-76
2023/12/06 01:35:09;;;;;;;;;14.00;12.75;;;;;;;;5083428;27;45718;-75
2023/12/06 01:37:35;;;;;;;;;12.33;12.00;;;;;;;;5102192;27;45463;-75
2023/12/06 01:40:00;;;;;;;;;6.00;6.00;;;;;;;;5102070;27;45456;-75
2023/12/06 01:42:25;;;;;;;;;15.67;15.33;;;;;;;;5101761;27;45407;-75
2023/12/06 01:44:50;;;;;;;;;11.75;11.75;;;;;;;;5102210;27;45248;-75
2023/12/06 01:47:19;;;;;;;;;14.00;13.00;;;;;;;;5083716;27;45362;-76
2023/12/06 01:49:44;;;;;;;;;14.33;13.00;;;;;;;;5079763;27;46339;-75
2023/12/06 01:52:10;;;;;;;;;14.33;13.33;;;;;;;;5079614;28;47589;-75
2023/12/06 01:54:35;;;;;;;;;11.67;11.67;;;;;;;;5079699;28;45923;-75
2023/12/06 01:57:00;;;;;;;;;13.67;11.00;;;;;;;;5079757;28;45333;-76
2023/12/06 01:59:26;;;;;;;;;13.33;12.33;;;;;;;;5081074;28;45430;-75
2023/12/06 02:01:51;;;;;;;;;15.00;14.67;;;;;;;;5081337;27;46521;-75
2023/12/06 02:04:17;;;;;;;;;13.33;13.33;;;;;;;;5081200;27;45388;-75
2023/12/06 02:06:42;;;;;;;;;9.33;9.33;;;;;;;;5080075;28;45401;-75
2023/12/06 02:09:08;;;;;;;;;17.00;12.00;;;;;;;;5079480;28;46211;-75
2023/12/06 02:11:34;;;;;;;;;12.33;12.33;;;;;;;;5080839;27;45377;-75
2023/12/06 02:13:59;;;;;;;;;13.00;12.33;;;;;;;;5079464;28;45332;-75
2023/12/06 02:16:25;;;;;;;;;11.00;10.00;;;;;;;;5081373;27;45360;-75
2023/12/06 02:18:50;;;;;;;;;14.67;12.00;;;;;;;;5080624;27;45245;-75
2023/12/06 02:21:15;;;;;;;;;18.33;16.00;;;;;;;;5080971;28;45325;-75
2023/12/06 02:23:43;;;;;;;;;11.00;10.33;;;;;;;;5079618;28;45276;-75
2023/12/06 02:26:08;;;;;;;;;15.67;14.67;;;;;;;;5081045;27;45457;-76
2023/12/06 02:28:33;;;;;;;;;14.00;14.00;;;;;;;;5079320;28;46085;-75
2023/12/06 02:30:58;;;;;;;;;12.33;12.33;;;;;;;;5080930;27;45205;-76
2023/12/06 02:33:24;;;;;;;;;14.00;13.00;;;;;;;;5079756;27;45328;-76
2023/12/06 02:35:51;;;;;;;;;13.00;13.00;;;;;;;;5080917;27;45306;-76
2023/12/06 02:38:18;;;;;;;;;15.00;14.00;;;;;;;;5079261;28;46358;-75
2023/12/06 02:40:44;;;;;;;;;13.00;12.00;;;;;;;;5079106;28;47317;-76
2023/12/06 02:43:10;;;;;;;;;11.67;11.33;;;;;;;;5079144;28;45359;-76
2023/12/06 02:45:36;;;;;;;;;15.33;13.33;;;;;;;;5080752;27;45187;-75
2023/12/06 02:48:04;;;;;;;;;13.33;13.33;;;;;;;;5080536;27;45346;-75
2023/12/06 02:50:29;;;;;;;;;11.33;11.33;;;;;;;;5100796;27;46145;-75
2023/12/06 02:52:54;;;;;;;;;10.75;10.25;;;;;;;;5101067;27;45333;-75
2023/12/06 02:55:19;;;;;;;;;12.33;12.33;;;;;;;;5100791;27;45203;-76
2023/12/06 02:57:44;;;;;;;;;13.00;12.33;;;;;;;;5090062;27;46883;-75
2023/12/06 03:00:10;;;;;;;;;12.75;12.50;;;;;;;;5100802;27;46035;-75
2023/12/06 03:02:35;;;;;;;;;14.00;12.33;;;;;;;;5100897;27;45420;-76
2023/12/06 03:05:00;;;;;;;;;12.33;12.33;;;;;;;;5101058;27;45266;-75
2023/12/06 03:07:25;;;;;;;;;9.00;9.00;;;;;;;;5099383;27;45947;-75
2023/12/06 03:09:51;;;;;;;;;13.67;11.33;;;;;;;;5100733;27;45227;-76
2023/12/06 03:12:16;;;;;;;;;11.25;11.25;;;;;;;;5100475;27;45326;-75
2023/12/06 03:14:41;;;;;;;;;12.00;12.00;;;;;;;;5100821;27;45315;-75
2023/12/06 03:17:06;;;;;;;;;14.67;13.00;;;;;;;;5100566;27;45563;-76
2023/12/06 03:19:31;;;;;;;;;10.00;9.33;;;;;;;;5098843;27;47472;-75
2023/12/06 03:21:56;;;;;;;;;13.00;12.67;;;;;;;;5100748;27;45271;-76
2023/12/06 03:24:22;;;;;;;;;12.67;9.67;;;;;;;;5100218;27;45282;-76
2023/12/06 03:26:47;;;;;;;;;11.00;10.00;;;;;;;;5100090;27;45540;-75
2023/12/06 03:29:12;;;;;;;;;8.67;8.67;;;;;;;;5100317;27;45386;-75
2023/12/06 03:31:37;;;;;;;;;11.00;10.67;;;;;;;;5100264;27;45402;-76
2023/12/06 03:34:02;;;;;;;;;10.00;9.67;;;;;;;;5100462;27;45306;-75
2023/12/06 03:36:27;;;;;;;;;11.33;8.33;;;;;;;;5100332;27;45454;-76
2023/12/06 03:38:53;;;;;;;;;8.00;8.00;;;;;;;;5100229;27;45326;-76
2023/12/06 03:41:19;;;;;;;;;11.00;10.00;;;;;;;;5099941;27;45315;-75
2023/12/06 03:43:44;;;;;;;;;12.00;11.00;;;;;;;;5100161;27;45397;-75
2023/12/06 03:46:09;;;;;;;;;10.33;10.33;;;;;;;;5100204;27;45329;-76
2023/12/06 03:48:34;;;;;;;;;10.33;8.33;;;;;;;;5081102;27;47349;-76
2023/12/06 03:51:00;;;;;;;;;11.67;11.67;;;;;;;;5081725;27;45263;-75
2023/12/06 03:53:25;;;;;;;;;9.67;7.00;;;;;;;;5100431;27;45520;-75
2023/12/06 03:55:50;;;;;;;;;9.33;9.33;;;;;;;;5081591;27;45976;-75
2023/12/06 03:58:15;;;;;;;;;10.33;9.67;;;;;;;;5093381;27;48354;-75
2023/12/06 04:00:41;;;;;;;;;11.50;10.50;;;;;;;;5100268;27;45363;-75
2023/12/06 04:03:07;;;;;;;;;12.33;11.33;;;;;;;;5098857;27;45319;-75
2023/12/06 04:05:32;;;;;;;;;11.00;10.00;;;;;;;;5099868;27;45329;-75
2023/12/06 04:07:57;;;;;;;;;14.00;11.33;;;;;;;;5099699;27;45261;-76
2023/12/06 04:10:22;;;;;;;;;11.75;9.75;;;;;;;;5100209;27;45308;-75
2023/12/06 04:12:48;;;;;;;;;13.00;10.33;;;;;;;;5099800;27;45598;-76
2023/12/06 04:15:13;;;;;;;;;13.00;10.67;;;;;;;;5099864;27;45342;-75
2023/12/06 04:17:38;;;;;;;;;13.33;12.00;;;;;;;;5099696;27;45452;-75
2023/12/06 04:20:05;;;;;;;;;11.67;10.00;;;;;;;;5098310;27;45729;-75
2023/12/06 04:22:30;;;;;;;;;12.33;12.00;;;;;;;;5099929;27;45341;-75
2023/12/06 04:24:55;;;;;;;;;13.33;12.00;;;;;;;;5098057;27;45361;-75
2023/12/06 04:27:20;;;;;;;;;13.00;10.50;;;;;;;;5099416;27;45570;-76
2023/12/06 04:29:46;;;;;;;;;10.25;9.25;;;;;;;;5099861;27;45303;-76
2023/12/06 04:32:11;;;;;;;;;12.33;11.00;;;;;;;;5099700;27;45365;-75
2023/12/06 04:34:45;;;;;;;;;12.00;12.00;;;;;;;;5099412;27;45452;-75
2023/12/06 04:37:11;;;;;;;;;10.67;9.33;;;;;;;;5099579;27;46219;-75
2023/12/06 04:39:36;;;;;;;;;12.00;11.00;;;;;;;;5099398;27;45423;-75
2023/12/06 04:42:01;;;;;;;;;9.67;8.00;;;;;;;;5098237;27;45371;-75
2023/12/06 04:44:26;;;;;;;;;10.00;10.00;;;;;;;;5097884;27;46403;-76
2023/12/06 04:46:52;;;;;;;;;13.33;12.00;;;;;;;;5099425;27;45384;-75
2023/12/06 04:49:17;;;;;;;;;11.75;11.75;;;;;;;;5097924;27;45427;-75
2023/12/06 04:51:42;;;;;;;;;13.33;12.33;;;;;;;;5098098;27;45454;-76
2023/12/06 04:54:07;;;;;;;;;12.75;10.75;;;;;;;;5099511;27;45412;-75
2023/12/06 04:56:32;;;;;;;;;8.00;8.00;;;;;;;;5099466;27;46954;-76
2023/12/06 04:58:58;;;;;;;;;11.67;10.00;;;;;;;;5102780;27;45361;-75
2023/12/06 05:01:23;;;;;;;;;10.00;9.00;;;;;;;;5102817;27;45562;-75
2023/12/06 05:03:48;;;;;;;;;10.25;9.75;;;;;;;;5084296;27;46220;-75
2023/12/06 05:06:13;;;;;;;;;13.33;13.00;;;;;;;;5084233;27;47058;-75
2023/12/06 05:08:38;;;;;;;;;12.75;11.75;;;;;;;;5102552;27;45358;-75
2023/12/06 05:11:03;;;;;;;;;14.00;11.67;;;;;;;;5102741;27;45411;-75
2023/12/06 05:13:29;;;;;;;;;11.00;9.33;;;;;;;;5102159;27;45390;-75
2023/12/06 05:15:54;;;;;;;;;11.67;10.67;;;;;;;;5102444;27;46343;-76
2023/12/06 05:18:19;;;;;;;;;10.33;10.33;;;;;;;;5102355;27;45510;-76
2023/12/06 05:20:44;;;;;;;;;11.00;9.67;;;;;;;;5102642;27;45388;-75
2023/12/06 05:23:09;;;;;;;;;13.67;12.00;;;;;;;;5102380;27;45435;-75
2023/12/06 05:25:34;;;;;;;;;9.50;8.50;;;;;;;;5084148;27;48396;-76
2023/12/06 05:28:00;;;;;;;;;12.50;11.00;;;;;;;;5102039;27;45400;-75
2023/12/06 05:30:25;;;;;;;;;7.67;7.67;;;;;;;;5102487;27;45243;-76
2023/12/06 05:32:50;;;;;;;;;9.00;9.00;;;;;;;;5102478;27;45235;-76
2023/12/06 05:35:15;;;;;;;;;10.00;10.00;;;;;;;;5102003;27;46374;-76
2023/12/06 05:37:40;;;;;;;;;13.33;10.67;;;;;;;;5083734;27;45185;-75
2023/12/06 05:40:06;;;;;;;;;12.33;9.67;;;;;;;;5083535;27;45505;-75
2023/12/06 05:42:31;;;;;;;;;12.67;10.67;;;;;;;;5083336;27;46021;-76
2023/12/06 05:44:57;;;;;;;;;9.00;9.00;;;;;;;;5102011;27;45615;-76
2023/12/06 05:47:22;;;;;;;;;8.00;8.00;;;;;;;;5102091;27;45225;-75
2023/12/06 05:49:47;;;;;;;;;9.00;9.00;;;;;;;;5101720;27;45307;-75
2023/12/06 05:52:12;;;;;;;;;9.67;8.00;;;;;;;;5101918;27;45195;-76
2023/12/06 05:54:37;;;;;;;;;8.33;8.33;;;;;;;;5102123;27;45263;-75
2023/12/06 05:57:02;;;;;;;;;11.50;11.50;;;;;;;;5101493;27;45222;-75
2023/12/06 05:59:28;;;;;;;;;11.00;9.00;;;;;;;;5100149;27;45344;-75
2023/12/06 06:01:53;;;;;;;;;10.33;10.33;;;;;;;;5100815;27;45236;-76
2023/12/06 06:04:18;;;;;;;;;11.50;10.00;;;;;;;;5099135;27;48405;-76
2023/12/06 06:06:43;;;;;;;;;10.00;9.67;;;;;;;;5100432;27;45310;-75
2023/12/06 06:09:09;;;;;;;;;9.67;8.67;;;;;;;;5101863;27;45180;-76
2023/12/06 06:11:34;;;;;;;;;9.33;9.33;;;;;;;;5100152;27;46077;-75
2023/12/06 06:14:00;;;;;;;;;8.33;8.33;;;;;;;;5101254;27;46471;-75
2023/12/06 06:16:25;;;;;;;;;12.67;11.00;;;;;;;;5101688;27;45359;-75
2023/12/06 06:18:50;;;;;;;;;12.33;11.00;;;;;;;;5101544;27;45628;-75
2023/12/06 06:21:16;;;;;;;;;13.00;11.33;;;;;;;;5100193;27;47067;-75
2023/12/06 06:23:41;;;;;;;;;16.00;14.50;;;;;;;;5101407;27;45329;-75
2023/12/06 06:26:09;;;;;;;;;10.33;9.00;;;;;;;;5101232;27;45346;-76
2023/12/06 06:28:34;;;;;;;;;13.33;9.67;;;;;;;;5101405;27;45523;-76
2023/12/06 06:30:59;;;;;;;;;10.00;9.67;;;;;;;;5100130;27;45352;-75
2023/12/06 06:33:25;;;;;;;;;13.67;11.33;;;;;;;;5099786;27;47596;-76
2023/12/06 06:35:50;;;;;;;;;9.33;9.00;;;;;;;;5100130;27;45338;-75
2023/12/06 06:38:16;;;;;;;;;14.00;11.33;;;;;;;;5100961;27;45255;-76
2023/12/06 06:40:41;;;;;;;;;9.00;8.33;;;;;;;;5100073;27;45300;-75
2023/12/06 06:43:07;;;;;;;;;15.00;14.33;;;;;;;;5100741;27;46326;-75
2023/12/06 06:45:32;;;;;;;;;21.67;20.33;;;;;;;;5101119;27;45310;-75
2023/12/06 06:47:57;;;;;;;;;25.67;21.67;;;;;;;;5081965;27;45623;-76
2023/12/06 06:50:22;;;;;;;;;24.67;22.00;;;;;;;;5081599;27;46175;-75
2023/12/06 06:52:47;;;;;;;;;21.33;19.00;;;;;;;;5100164;27;45468;-75
2023/12/06 06:55:12;;;;;;;;;28.25;25.00;;;;;;;;5086971;27;45276;-75
2023/12/06 06:57:38;;;;;;;;;34.25;31.75;;;;;;;;5095284;27;45467;-75
2023/12/06 07:00:03;;;;;;;;;36.00;34.50;;;;;;;;5100164;27;45542;-76
2023/12/06 07:02:29;;;;;;;;;28.00;26.00;;;;;;;;5100505;27;46675;-75
2023/12/06 07:04:55;;;;;;;;;40.00;38.00;;;;;;;;5099257;27;45968;-75
2023/12/06 07:07:20;;;;;;;;;39.25;35.00;;;;;;;;5100964;27;45314;-75
2023/12/06 07:09:46;;;;;;;;;51.75;42.50;;;;;;;;5100536;27;45508;-75
2023/12/06 07:12:11;;;;;;;;;51.50;42.00;;;;;;;;5098957;27;47181;-76
2023/12/06 07:14:36;;;;;;;;;51.50;41.50;;;;;;;;5099360;27;45325;-74
2023/12/06 07:17:02;;;;;;;;;33.50;31.50;;;;;;;;5099258;27;45232;-76
2023/12/06 07:19:27;;;;;;;;;21.33;18.00;;;;;;;;5098362;27;47121;-75
2023/12/06 07:21:53;;;;;;;;;23.75;23.25;;;;;;;;5100699;27;46308;-76
2023/12/06 07:24:20;;;;;;;;;16.67;16.67;;;;;;;;5100521;27;45456;-76
2023/12/06 07:26:45;;;;;;;;;20.00;18.33;;;;;;;;5099129;27;45351;-77
2023/12/06 07:29:11;;;;;;;;;20.00;19.67;;;;;;;;5100029;27;45344;-76
2023/12/06 07:31:36;;;;;;;;;20.33;19.00;;;;;;;;5100278;27;45324;-75
2023/12/06 07:34:01;;;;;;;;;21.50;20.25;;;;;;;;5099043;27;45383;-76
2023/12/06 07:36:26;;;;;;;;;26.00;23.33;;;;;;;;5100456;27;45265;-75
2023/12/06 07:38:51;;;;;;;;;20.33;20.33;;;;;;;;5098834;27;46571;-74
2023/12/06 07:41:17;;;;;;;;;18.00;16.67;;;;;;;;5092077;27;47036;-75
2023/12/06 07:43:42;;;;;;;;;22.33;18.33;;;;;;;;5100126;27;45516;-75
2023/12/06 07:46:08;;;;;;;;;20.00;20.00;;;;;;;;5082059;27;45610;-76
2023/12/06 07:48:33;;;;;;;;;16.33;16.33;;;;;;;;5099830;27;45330;-75
2023/12/06 07:50:59;;;;;;;;;43.50;37.00;;;;;;;;5081484;27;48285;-75
2023/12/06 07:53:24;;;;;;;;;18.50;17.50;;;;;;;;5099502;27;45370;-74
2023/12/06 07:55:49;;;;;;;;;16.00;14.75;;;;;;;;5100104;27;45287;-75
2023/12/06 07:58:16;;;;;;;;;24.67;23.33;;;;;;;;5099350;27;45282;-75
2023/12/06 08:00:41;;;;;;;;;16.00;15.50;;;;;;;;5097564;27;46140;-75
2023/12/06 08:03:08;;;;;;;;;39.50;35.25;;;;;;;;5098774;27;45330;-75
2023/12/06 08:05:33;;;;;;;;;33.50;31.75;;;;;;;;5099202;27;45357;-75
2023/12/06 08:07:58;;;;;;;;;39.75;32.25;;;;;;;;5081209;27;46011;-75
2023/12/06 08:10:23;;;;;;;;;29.80;27.20;;;;;;;;5081587;27;47157;-75
2023/12/06 08:12:49;;;;;;;;;34.75;33.00;;;;;;;;5080987;27;45311;-74
2023/12/06 08:15:14;;;;;;;;;30.50;30.25;;;;;;;;5099869;27;45277;-75
2023/12/06 08:17:40;;;;;;;;;34.50;33.00;;;;;;;;5099656;27;45554;-75
2023/12/06 08:20:07;;;;;;;;;42.00;38.25;;;;;;;;5080769;27;47637;-75
2023/12/06 08:22:32;;;;;;;;;52.75;44.25;;;;;;;;5099158;27;45377;-75
2023/12/06 08:24:57;;;;;;;;;51.00;40.50;;;;;;;;5099363;27;45342;-75
2023/12/06 08:27:29;;;;;;;;;36.25;33.50;;;;;;;;5099301;27;45575;-73
2023/12/06 08:30:00;;;;;;;;;34.25;33.25;;;;;;;;5098651;27;46378;-75
2023/12/06 08:32:26;;;;;;;;;35.25;33.50;;;;;;;;5101993;27;45483;-76
2023/12/06 08:34:51;;;;;;;;;35.50;33.50;;;;;;;;5085051;27;45423;-77
2023/12/06 08:37:16;;;;;;;;;29.33;27.33;;;;;;;;5103249;27;45316;-75
2023/12/06 08:39:43;;;;;;;;;25.00;25.00;;;;;;;;5102768;27;45305;-74
2023/12/06 08:42:08;;;;;;;;;25.33;25.33;;;;;;;;5102709;27;45264;-74
2023/12/06 08:44:33;;;;;;;;;30.00;30.00;;;;;;;;5102384;27;45305;-74
2023/12/06 08:46:59;;;;;;;;;32.00;30.25;;;;;;;;5083596;27;45727;-74
2023/12/06 08:49:24;;;;;;;;;20.67;20.00;;;;;;;;5101859;27;46281;-75
2023/12/06 08:51:49;;;;;;;;;34.00;29.75;;;;;;;;5077034;27;45509;-75
2023/12/06 08:54:14;;;;;;;;;39.25;37.75;;;;;;;;5101284;27;45327;-74
2023/12/06 08:56:39;;;;;;;;;41.25;37.00;;;;;;;;5100490;27;45952;-74
2023/12/06 08:59:05;;;;;;;;;42.40;37.20;;;;;;;;5100566;27;45398;-74
2023/12/06 09:01:31;;;;;;;;;39.75;35.75;;;;;;;;5101519;27;45332;-74
2023/12/06 09:03:56;;;;;;;;;36.75;34.50;;;;;;;;5101405;27;45298;-75
2023/12/06 09:06:21;;;;;;;;;39.00;35.00;;;;;;;;5101159;27;45620;-75
2023/12/06 09:08:47;;;;;;;;;31.80;31.20;;;;;;;;5082855;27;48008;-75
2023/12/06 09:11:17;;;;;;;;;35.25;32.75;;;;;;;;5100869;27;45317;-74
2023/12/06 09:13:43;;;;;;;;;34.25;33.75;;;;;;;;5101679;27;45340;-75
2023/12/06 09:16:08;;;;;;;;;45.40;38.00;;;;;;;;5082704;27;46028;-74
2023/12/06 09:18:33;;;;;;;;;35.00;33.50;;;;;;;;5082413;27;48552;-75
2023/12/06 09:20:58;;;;;;;;;43.60;38.40;;;;;;;;5101522;27;45334;-74
2023/12/06 09:23:24;;;;;;;;;41.75;37.50;;;;;;;;5082141;27;45809;-75
2023/12/06 09:25:49;;;;;;;;;42.40;39.00;;;;;;;;5082764;27;45889;-75
2023/12/06 09:28:14;;;;;;;;;41.50;37.75;;;;;;;;5100588;27;45483;-76
2023/12/06 09:30:40;;;;;;;;;40.25;36.50;;;;;;;;5082645;27;45434;-76
2023/12/06 09:33:05;;;;;;;;;31.33;29.67;;;;;;;;5101110;27;45319;-76
2023/12/06 09:35:30;;;;;;;;;37.75;32.00;;;;;;;;5100898;27;45346;-76
2023/12/06 09:37:55;;;;;;;;;28.33;28.33;;;;;;;;5100702;27;46299;-75
2023/12/06 09:40:21;;;;;;;;;25.00;24.33;;;;;;;;5082336;27;45983;-76
2023/12/06 09:42:50;;;;;;;;;28.00;24.00;;;;;;;;5082722;27;45417;-77
2023/12/06 09:45:18;;;;;;;;;22.67;20.33;;;;;;;;5101104;27;45594;-76
2023/12/06 09:47:45;;;;;;;;;22.00;21.67;;;;;;;;5080926;27;47049;-75
2023/12/06 09:50:10;;;;;;;;;32.67;28.33;;;;;;;;5099454;27;45412;-76
2023/12/06 09:52:35;;;;;;;;;27.67;24.33;;;;;;;;5099564;27;45600;-75
2023/12/06 09:55:00;;;;;;;;;32.67;29.00;;;;;;;;5082280;27;47366;-76
2023/12/06 09:57:26;;;;;;;;;26.33;26.33;;;;;;;;5099476;27;46186;-76
2023/12/06 09:59:51;;;;;;;;;36.00;31.67;;;;;;;;5100535;27;45540;-76
2023/12/06 10:02:17;;;;;;;;;31.75;31.00;;;;;;;;5100781;27;45342;-78
2023/12/06 10:04:42;;;;;;;;;25.33;25.33;;;;;;;;5100267;27;45619;-75
2023/12/06 10:07:07;;;;;;;;;28.33;26.00;;;;;;;;5099824;27;46599;-76
2023/12/06 10:09:32;;;;;;;;;35.00;34.50;;;;;;;;5100248;27;45449;-75
2023/12/06 10:12:10;;;;;;;;;30.33;29.00;;;;;;;;5081125;27;45374;-76
2023/12/06 10:14:35;;;;;;;;;29.33;25.00;;;;;;;;5081068;27;46961;-75
2023/12/06 10:17:01;;;;;;;;;6.00;5.00;;;;;;;;5099095;27;46276;-77
2023/12/06 10:19:26;;;;;;;;;18.67;17.67;;;;;;;;5099806;27;45931;-76
2023/12/06 10:21:52;;;;;;;;;18.33;17.00;;;;;;;;5099103;27;45458;-75
2023/12/06 10:24:17;;;;;;;;;16.67;16.00;;;;;;;;5099039;27;45609;-76
2023/12/06 10:26:42;;;;;;;;;18.00;18.00;;;;;;;;5080571;27;48404;-75
2023/12/06 10:29:08;;;;;;;;;19.33;18.33;;;;;;;;5099120;27;45736;-76
2023/12/06 10:31:42;;;;;;;;;17.00;13.67;;;;;;;;5098847;27;45666;-76
2023/12/06 10:34:08;;;;;;;;;20.67;18.33;;;;;;;;5096360;27;45593;-77
2023/12/06 10:36:33;;;;;;;;;23.67;22.67;;;;;;;;5098510;27;46127;-76
2023/12/06 10:38:59;;;;;;;;;18.00;17.00;;;;;;;;5080157;27;45338;-75
2023/12/06 10:41:30;;;;;;;;;25.00;24.00;;;;;;;;5097974;27;45479;-75
2023/12/06 10:43:56;;;;;;;;;21.67;20.00;;;;;;;;5081989;27;46004;-75
2023/12/06 10:46:23;;;;;;;;;19.67;19.67;;;;;;;;5099619;27;45428;-75
2023/12/06 10:48:50;;;;;;;;;20.33;17.33;;;;;;;;5100367;27;45385;-76
2023/12/06 10:51:16;;;;;;;;;19.00;19.00;;;;;;;;5100184;27;45462;-76
2023/12/06 10:53:42;;;;;;;;;21.00;21.00;;;;;;;;5099940;27;45370;-75
2023/12/06 10:56:08;;;;;;;;;22.67;20.33;;;;;;;;5082093;27;46925;-75
2023/12/06 10:58:34;;;;;;;;;28.00;22.00;;;;;;;;5082053;27;45292;-75
2023/12/06 11:00:59;;;;;;;;;19.00;16.67;;;;;;;;5100032;27;45284;-76
2023/12/06 11:03:24;;;;;;;;;16.67;14.33;;;;;;;;5081767;27;46908;-77
2023/12/06 11:05:52;;;;;;;;;19.67;18.67;;;;;;;;5100463;27;45372;-75
2023/12/06 11:08:40;;;;;;;;;25.67;25.00;;;;;;;;5100371;27;45318;-75
2023/12/06 11:11:05;;;;;;;;;63.75;46.50;;;;;;;;5100416;27;45276;-74
2023/12/06 11:13:58;;;;;;;;;39.00;34.00;;;;;;;;5081763;27;46305;-76
2023/12/06 11:16:29;;;;;;;;;15.00;14.33;;;;;;;;5100432;27;46152;-75
2023/12/06 11:18:55;;;;;;;;;22.33;18.67;;;;;;;;5100207;27;45308;-75
2023/12/06 11:21:21;;;;;;;;;18.00;16.33;;;;;;;;5100559;27;45347;-75
2023/12/06 11:23:47;;;;;;;;;19.67;19.67;;;;;;;;5100377;27;45496;-76
2023/12/06 11:26:12;;;;;;;;;22.33;19.00;;;;;;;;5099457;27;45244;-75
2023/12/06 11:28:41;;;;;;;;;21.67;20.67;;;;;;;;5099971;27;45304;-74
2023/12/06 11:31:07;;;;;;;;;19.33;14.00;;;;;;;;5098398;27;45307;-75
2023/12/06 11:33:33;;;;;;;;;13.67;13.67;;;;;;;;5097886;27;45298;-74
2023/12/06 11:35:58;;;;;;;;;15.00;13.67;;;;;;;;5099455;27;46220;-76
2023/12/06 11:38:33;;;;;;;;;15.33;14.33;;;;;;;;5081811;27;45346;-75
2023/12/06 11:40:58;;;;;;;;;28.33;27.00;;;;;;;;5081743;27;45456;-76
2023/12/06 11:43:31;;;;;;;;;18.33;17.33;;;;;;;;5099354;27;45338;-75
2023/12/06 11:46:09;;;;;;;;;34.00;32.67;;;;;;;;5099512;27;45374;-75
2023/12/06 11:48:39;;;;;;;;;15.67;14.33;;;;;;;;5098933;27;45241;-75
2023/12/06 11:51:04;;;;;;;;;13.67;13.33;;;;;;;;5095858;27;45306;-76
2023/12/06 11:53:30;;;;;;;;;14.00;12.67;;;;;;;;5098037;27;45667;-75
2023/12/06 11:55:56;;;;;;;;;13.67;13.67;;;;;;;;5097929;27;45380;-75
2023/12/06 11:58:22;;;;;;;;;13.33;11.00;;;;;;;;5081597;27;45817;-79
2023/12/06 12:00:48;;;;;;;;;13.33;12.67;;;;;;;;5099584;27;45419;-75
2023/12/06 12:03:14;;;;;;;;;16.33;15.67;;;;;;;;5099123;27;45354;-74
2023/12/06 12:05:42;;;;;;;;;21.33;14.00;;;;;;;;5091131;27;46945;-76
2023/12/06 12:08:07;;;;;;;;;15.67;15.00;;;;;;;;5101677;27;45574;-75
2023/12/06 12:10:33;;;;;;;;;13.67;13.67;;;;;;;;5079198;27;45448;-74
2023/12/06 12:12:59;;;;;;;;;20.00;16.33;;;;;;;;5098627;27;45627;-75
2023/12/06 12:15:25;;;;;;;;;14.67;14.67;;;;;;;;5081796;27;48025;-75
2023/12/06 12:17:51;;;;;;;;;15.00;14.00;;;;;;;;5099433;27;45552;-76
2023/12/06 12:20:16;;;;;;;;;15.33;13.33;;;;;;;;5101292;27;45399;-75
2023/12/06 12:22:44;;;;;;;;;11.67;11.67;;;;;;;;5081351;27;46097;-76
2023/12/06 12:25:09;;;;;;;;;18.67;18.67;;;;;;;;5102217;27;45865;-77
2023/12/06 12:27:35;;;;;;;;;19.33;17.33;;;;;;;;5082783;27;45704;-76
2023/12/06 12:30:00;;;;;;;;;17.67;17.67;;;;;;;;5083479;27;45334;-76
2023/12/06 12:32:27;;;;;;;;;19.67;19.33;;;;;;;;5101732;27;45431;-76
2023/12/06 12:34:52;;;;;;;;;14.00;11.33;;;;;;;;5100823;27;46094;-76
2023/12/06 12:37:17;;;;;;;;;52.50;43.25;;;;;;;;5082920;27;46040;-76
2023/12/06 12:39:42;;;;;;;;;16.33;14.00;;;;;;;;5102002;27;45317;-76
2023/12/06 12:42:08;;;;;;;;;12.67;12.67;;;;;;;;5101645;27;45623;-75
2023/12/06 12:44:34;;;;;;;;;16.33;13.00;;;;;;;;5101490;27;45318;-76
2023/12/06 12:47:00;;;;;;;;;18.67;15.00;;;;;;;;5101121;27;45405;-77
2023/12/06 12:49:25;;;;;;;;;16.67;16.00;;;;;;;;5101539;27;45453;-75
2023/12/06 12:51:50;;;;;;;;;13.00;13.00;;;;;;;;5078206;27;46096;-78
2023/12/06 12:54:16;;;;;;;;;13.67;13.33;;;;;;;;5100510;27;45404;-81
2023/12/06 12:56:42;;;;;;;;;16.00;16.00;;;;;;;;5100140;27;45376;-81
2023/12/06 12:59:07;;;;;;;;;11.00;10.67;;;;;;;;5101479;27;45627;-80
2023/12/06 13:01:34;;;;;;;;;17.75;15.50;;;;;;;;5083666;27;47155;-80
2023/12/06 13:04:00;;;;;;;;;15.67;15.67;;;;;;;;5100612;27;45405;-80
2023/12/06 13:06:25;;;;;;;;;16.00;14.00;;;;;;;;5099638;27;45353;-81
2023/12/06 13:08:53;;;;;;;;;12.67;12.67;;;;;;;;5099713;27;45609;-80
2023/12/06 13:11:19;;;;;;;;;39.00;33.67;;;;;;;;5098883;27;45337;-81
2023/12/06 13:13:44;;;;;;;;;15.67;14.67;;;;;;;;5096921;27;45667;-82
2023/12/06 13:16:09;;;;;;;;;15.33;15.33;;;;;;;;5100040;27;45471;-82
2023/12/06 13:18:37;;;;;;;;;15.67;14.67;;;;;;;;5100284;27;45396;-82
2023/12/06 13:21:03;;;;;;;;;17.00;16.67;;;;;;;;5099985;27;45381;-81
2023/12/06 13:23:28;;;;;;;;;17.00;16.33;;;;;;;;5100533;27;45592;-81
2023/12/06 13:25:53;;;;;;;;;16.00;16.00;;;;;;;;5081113;27;45505;-80
2023/12/06 13:28:18;;;;;;;;;17.33;14.33;;;;;;;;5100668;27;45447;-81
2023/12/06 13:30:45;;;;;;;;;14.33;14.33;;;;;;;;5101672;27;45390;-82
2023/12/06 13:33:10;;;;;;;;;17.67;16.67;;;;;;;;5101122;27;46501;-84
2023/12/06 13:35:35;;;;;;;;;14.67;14.00;;;;;;;;5100755;27;45298;-82
2023/12/06 13:38:02;;;;;;;;;13.33;12.33;;;;;;;;5079645;27;45595;-83
2023/12/06 13:40:27;;;;;;;;;11.33;11.33;;;;;;;;5100230;27;45585;-80
2023/12/06 13:42:52;;;;;;;;;15.33;13.33;;;;;;;;5101143;27;45577;-79
2023/12/06 13:45:17;;;;;;;;;18.33;13.33;;;;;;;;5100879;27;45428;-79
2023/12/06 13:47:43;;;;;;;;;14.33;14.33;;;;;;;;5096264;27;45336;-82
2023/12/06 13:50:08;;;;;;;;;15.33;13.00;;;;;;;;5090139;27;45327;-80
2023/12/06 13:52:33;;;;;;;;;13.00;12.33;;;;;;;;5064839;27;48095;-80
2023/12/06 13:54:58;;;;;;;;;14.50;13.75;;;;;;;;5099989;27;45492;-80
2023/12/06 13:57:23;;;;;;;;;13.00;11.67;;;;;;;;5098932;27;45759;-78
2023/12/06 13:59:49;;;;;;;;;18.67;16.67;;;;;;;;5098353;27;45402;-79
2023/12/06 14:02:14;;;;;;;;;24.00;21.00;;;;;;;;5098833;27;45523;-79
2023/12/06 14:04:39;;;;;;;;;14.00;13.50;;;;;;;;5079403;27;45431;-79
2023/12/06 14:07:04;;;;;;;;;18.00;17.00;;;;;;;;5098999;27;45528;-79
2023/12/06 14:09:30;;;;;;;;;17.00;17.00;;;;;;;;5097839;27;45752;-79